»·PEaware :: N7375Q 0O2-1L1

N7375Q :: 0O2-1L1

FLIGHT INFORMATION

Flight Status: Arrived
Operator: Privately registered:
United States
More flights under this callsign
Pilot: Ion I. (24133)
Aircraft: SOCATA TBM-900
(TBM9)
More flights by this aircraft type
Origin: 0O2 Baker
United States
Destination: 1L1 Lincoln Co
United States
More flights between these airports :: More routes between these airports
Route: +LAS
File this flight plan on PilotEdge
Remarks:
Altitude:
(Current/Filed)
27,000ft
Speed:
(Current/Filed)
250kts
Departed: 31-Jul-20 01:40 PM
Arrived: 31-Jul-20 02:27 PM
Distance/Time
Traveled:
170nm/0:47
Distance/Time
To Go:
Arrived

Flight Plot

Page will automatically refresh every two minutes.

Flight plan parsing failed; only flown route is shown


Map Options




Map Legend


Flown Route
Filed Route
Departure Airport
Arrival Airport
Navaid (VOR, NDB)
Fix

Horizontal Profiles

Position Reports

Time Latitude Longitude Heading Altitude Ground
Speed
31-Jul-20 13:30 35.287641 -116.081246 258 924ft 0kts
31-Jul-20 13:31 35.287641 -116.081246 258 924ft 0kts
31-Jul-20 13:32 35.287641 -116.081246 258 924ft 0kts
31-Jul-20 13:33 35.287641 -116.081246 258 924ft 0kts
31-Jul-20 13:34 35.287641 -116.081246 258 924ft 0kts
31-Jul-20 13:35 35.287641 -116.081246 258 924ft 0kts
31-Jul-20 13:36 35.287760 -116.081740 345 923ft 4kts
31-Jul-20 13:37 35.289420 -116.082253 345 922ft 7kts
31-Jul-20 13:38 35.290381 -116.082571 166 922ft 0kts
31-Jul-20 13:39 35.288832 -116.082076 165 923ft 55kts
31-Jul-20 13:40 35.263263 -116.086523 252 2241ft 115kts
31-Jul-20 13:41 35.288057 -116.104513 17 4458ft 142kts
31-Jul-20 13:42 35.324654 -116.090507 13 6840ft 140kts
31-Jul-20 13:43 35.363049 -116.076379 12 9089ft 152kts
31-Jul-20 13:44 35.401076 -116.049729 29 11258ft 167kts
31-Jul-20 13:45 35.443139 -116.018515 30 13382ft 186kts
31-Jul-20 13:46 35.483052 -115.979309 46 15592ft 187kts
31-Jul-20 13:47 35.518034 -115.933376 48 17942ft 180kts
31-Jul-20 13:48 35.549015 -115.891334 48 20259ft 152kts
31-Jul-20 13:49 35.579916 -115.849181 48 21980ft 183kts
31-Jul-20 13:50 35.618386 -115.796608 47 23094ft 245kts
31-Jul-20 13:51 35.668007 -115.728743 47 23890ft 262kts
31-Jul-20 13:52 35.715686 -115.663274 46 25557ft 254kts
31-Jul-20 13:53 35.762553 -115.598858 45 27051ft 258kts
31-Jul-20 13:54 35.815058 -115.526644 45 27055ft 301kts
31-Jul-20 13:55 35.872490 -115.447387 45 27040ft 317kts
31-Jul-20 13:56 35.931807 -115.365313 45 27036ft 322kts
31-Jul-20 13:57 35.988253 -115.287031 46 27034ft 323kts
31-Jul-20 13:58 36.047983 -115.203987 46 27010ft 324kts
31-Jul-20 13:59 36.119845 -115.142081 14 27018ft 317kts
31-Jul-20 14:00 36.203379 -115.107369 15 27011ft 318kts
31-Jul-20 14:01 36.289526 -115.070813 16 25815ft 343kts
31-Jul-20 14:02 36.381507 -115.031621 17 23824ft 353kts
31-Jul-20 14:03 36.474419 -114.991895 17 21825ft 356kts
31-Jul-20 14:04 36.567393 -114.952067 18 19810ft 350kts
31-Jul-20 14:05 36.659046 -114.912718 18 17805ft 349kts
31-Jul-20 14:06 36.750067 -114.873520 18 15802ft 341kts
31-Jul-20 14:07 36.838907 -114.835188 17 13801ft 336kts
31-Jul-20 14:08 36.923829 -114.798450 17 13087ft 304kts
31-Jul-20 14:09 37.002108 -114.764505 17 13095ft 293kts
31-Jul-20 14:10 37.079007 -114.731100 17 13098ft 291kts
31-Jul-20 14:11 37.155416 -114.697837 17 13106ft 290kts
31-Jul-20 14:12 37.231766 -114.664521 17 13145ft 290kts
31-Jul-20 14:13 37.307901 -114.631238 17 13176ft 290kts
31-Jul-20 14:14 37.384795 -114.597530 17 13016ft 293kts
31-Jul-20 14:15 37.461617 -114.563796 17 13012ft 291kts
31-Jul-20 14:16 37.538219 -114.530083 17 13015ft 291kts
31-Jul-20 14:17 37.614427 -114.496464 17 13015ft 290kts
31-Jul-20 14:18 37.690830 -114.462748 17 12733ft 299kts
31-Jul-20 14:19 37.758395 -114.416824 28 10361ft 256kts
31-Jul-20 14:20 37.818091 -114.375323 28 7731ft 228kts
31-Jul-20 14:21 37.865711 -114.360061 310 6863ft 141kts
31-Jul-20 14:22 37.865419 -114.400163 227 6554ft 99kts
31-Jul-20 14:24 37.840816 -114.414892 195 6157ft 100kts
31-Jul-20 14:25 37.813686 -114.419622 185 5443ft 93kts
31-Jul-20 14:26 37.789827 -114.420847 178 4832ft 67kts
31-Jul-20 14:27 37.787924 -114.421395 2 4824ft 8kts
31-Jul-20 14:28 37.790994 -114.421261 8 4841ft 11kts
31-Jul-20 14:29 37.793811 -114.420980 92 4850ft 0kts
31-Jul-20 14:30 37.793811 -114.420980 92 4850ft 0kts
31-Jul-20 14:31 37.793811 -114.420980 92 4850ft 0kts
31-Jul-20 14:32 37.793811 -114.420980 92 4850ft 0kts
31-Jul-20 14:33 37.793811 -114.420980 92 4850ft 0kts

Navigation Log

Ident Type
Flight plan parsing failed, navigation log unavailable